LPA502 UGTB-UWWW
Flight info
| Callsign | LPA502 |
|---|---|
| Flight time | 1h 57m |
| Altitude | 34000 |
| Route | LAPTO N82 NIRGA/K0848F350 R807 UROBO P135 TUNIG TUNIG2F |
| Aircraft | B738/M-SDE2E3FGHIRWXY/LB1 |
Departure
| Time | 2026-04-24 19:09 |
|---|---|
| Airport | Tbilisi International Airport (UGTB) |
Arrival
| Time | 2026-04-24 21:06 |
|---|---|
| Airport | Kurumoch International Airport (UWWW) |
| Time | Latitude | Longitude | Altitude | Speed | Heading |
|---|---|---|---|---|---|
| 2026-04-24 18:54 | 41.66939 | 44.96292 | 1526 ft | 0 kts | 43° |
| 2026-04-24 18:56 | 41.66936 | 44.96287 | 1526 ft | 2 kts | 42° |
| 2026-04-24 18:56 | 41.66921 | 44.96271 | 1521 ft | 3 kts | 36° |
| 2026-04-24 18:57 | 41.66905 | 44.96256 | 1523 ft | 3 kts | 30° |
| 2026-04-24 18:57 | 41.66887 | 44.96243 | 1525 ft | 3 kts | 31° |
| 2026-04-24 18:57 | 41.66872 | 44.96229 | 1520 ft | 3 kts | 66° |
| 2026-04-24 18:57 | 41.66867 | 44.96226 | 1524 ft | 1 kts | 132° |
| 2026-04-24 18:58 | 41.66868 | 44.96225 | 1524 ft | 1 kts | 133° |
| 2026-04-24 19:01 | 41.66865 | 44.96229 | 1525 ft | 2 kts | 133° |
| 2026-04-24 19:02 | 41.66849 | 44.96252 | 1522 ft | 5 kts | 133° |
| 2026-04-24 19:02 | 41.66821 | 44.96292 | 1523 ft | 6 kts | 133° |
| 2026-04-24 19:02 | 41.66791 | 44.96334 | 1526 ft | 6 kts | 133° |
| 2026-04-24 19:02 | 41.66763 | 44.96374 | 1526 ft | 6 kts | 134° |
| 2026-04-24 19:03 | 41.66732 | 44.96410 | 1524 ft | 6 kts | 147° |
| 2026-04-24 19:03 | 41.66693 | 44.96427 | 1524 ft | 6 kts | 176° |
| 2026-04-24 19:03 | 41.66651 | 44.96418 | 1526 ft | 7 kts | 191° |
| 2026-04-24 19:03 | 41.66604 | 44.96405 | 1526 ft | 7 kts | 193° |
| 2026-04-24 19:04 | 41.66549 | 44.96388 | 1518 ft | 9 kts | 193° |
| 2026-04-24 19:04 | 41.66485 | 44.96367 | 1522 ft | 10 kts | 194° |
| 2026-04-24 19:04 | 41.66412 | 44.96343 | 1524 ft | 11 kts | 194° |
| 2026-04-24 19:04 | 41.66335 | 44.96317 | 1520 ft | 11 kts | 194° |
| 2026-04-24 19:05 | 41.66260 | 44.96299 | 1524 ft | 11 kts | 182° |
| 2026-04-24 19:05 | 41.66186 | 44.96314 | 1523 ft | 11 kts | 161° |
| 2026-04-24 19:05 | 41.66124 | 44.96362 | 1523 ft | 10 kts | 139° |
| 2026-04-24 19:05 | 41.66072 | 44.96426 | 1525 ft | 10 kts | 136° |
| 2026-04-24 19:06 | 41.66023 | 44.96489 | 1524 ft | 10 kts | 136° |
| 2026-04-24 19:06 | 41.65975 | 44.96551 | 1525 ft | 9 kts | 136° |
| 2026-04-24 19:06 | 41.65922 | 44.96599 | 1523 ft | 9 kts | 165° |
| 2026-04-24 19:06 | 41.65863 | 44.96573 | 1525 ft | 9 kts | 222° |
| 2026-04-24 19:07 | 41.65845 | 44.96490 | 1524 ft | 9 kts | 272° |
| 2026-04-24 19:07 | 41.65862 | 44.96434 | 1519 ft | 0 kts | 313° |
| 2026-04-24 19:07 | 41.65863 | 44.96432 | 1519 ft | 3 kts | 313° |
| 2026-04-24 19:08 | 41.65929 | 44.96350 | 1520 ft | 35 kts | 317° |
| 2026-04-24 19:08 | 41.66268 | 44.95922 | 1526 ft | 98 kts | 316° |
| 2026-04-24 19:08 | 41.66902 | 44.95126 | 1525 ft | 150 kts | 317° |
| 2026-04-24 19:08 | 41.67765 | 44.94032 | 1642 ft | 184 kts | 316° |
| 2026-04-24 19:09 | 41.68704 | 44.92852 | 2347 ft | 183 kts | 317° |
| 2026-04-24 19:09 | 41.69630 | 44.91699 | 3185 ft | 182 kts | 317° |
| 2026-04-24 19:09 | 41.70594 | 44.90495 | 3542 ft | 198 kts | 316° |
| 2026-04-24 19:09 | 41.71642 | 44.89185 | 3688 ft | 214 kts | 316° |
| 2026-04-24 19:10 | 41.72770 | 44.87771 | 3853 ft | 230 kts | 316° |
| 2026-04-24 19:10 | 41.73990 | 44.86242 | 4036 ft | 248 kts | 316° |
| 2026-04-24 19:10 | 41.75257 | 44.84652 | 4593 ft | 251 kts | 316° |
| 2026-04-24 19:10 | 41.76520 | 44.83065 | 5303 ft | 248 kts | 316° |
| 2026-04-24 19:11 | 41.77776 | 44.81486 | 5961 ft | 248 kts | 315° |
| 2026-04-24 19:11 | 41.79091 | 44.80012 | 6650 ft | 247 kts | 325° |
| 2026-04-24 19:11 | 41.80610 | 44.78847 | 7140 ft | 256 kts | 329° |
| 2026-04-24 19:11 | 41.82216 | 44.77742 | 7644 ft | 262 kts | 329° |
| 2026-04-24 19:12 | 41.83842 | 44.76638 | 8261 ft | 263 kts | 328° |
| 2026-04-24 19:12 | 41.85464 | 44.75523 | 8982 ft | 262 kts | 328° |
| 2026-04-24 19:12 | 41.87103 | 44.74380 | 9548 ft | 268 kts | 327° |
| 2026-04-24 19:12 | 41.88770 | 44.73205 | 10130 ft | 273 kts | 327° |
| 2026-04-24 19:13 | 41.89903 | 44.72400 | 10308 ft | 285 kts | 327° |
| 2026-04-24 19:13 | 41.92347 | 44.70647 | 10504 ft | 310 kts | 327° |
| 2026-04-24 19:13 | 41.94308 | 44.69235 | 10648 ft | 329 kts | 327° |
| 2026-04-24 19:13 | 41.96377 | 44.67742 | 10814 ft | 346 kts | 327° |
| 2026-04-24 19:14 | 41.98524 | 44.66193 | 11198 ft | 355 kts | 327° |
| 2026-04-24 19:14 | 42.00706 | 44.64619 | 11734 ft | 359 kts | 327° |
| 2026-04-24 19:14 | 42.02916 | 44.63025 | 12419 ft | 360 kts | 326° |
| 2026-04-24 19:14 | 42.05131 | 44.61426 | 13029 ft | 364 kts | 326° |
| 2026-04-24 19:15 | 42.07379 | 44.59791 | 13523 ft | 371 kts | 325° |
| 2026-04-24 19:15 | 42.09670 | 44.58124 | 14079 ft | 376 kts | 325° |
| 2026-04-24 19:15 | 42.11982 | 44.56442 | 14636 ft | 379 kts | 324° |
| 2026-04-24 19:15 | 42.14320 | 44.54752 | 15156 ft | 383 kts | 325° |
| 2026-04-24 19:16 | 42.19057 | 44.51299 | 16239 ft | 391 kts | 324° |
| 2026-04-24 19:16 | 42.21458 | 44.49544 | 16751 ft | 395 kts | 323° |
| 2026-04-24 19:16 | 42.23872 | 44.47778 | 17435 ft | 395 kts | 323° |
| 2026-04-24 19:17 | 42.26310 | 44.45998 | 17769 ft | 403 kts | 323° |
| 2026-04-24 19:17 | 42.28777 | 44.44179 | 18246 ft | 406 kts | 323° |
| 2026-04-24 19:17 | 42.31261 | 44.42358 | 18815 ft | 408 kts | 323° |
| 2026-04-24 19:17 | 42.33756 | 44.40518 | 19362 ft | 409 kts | 322° |
| 2026-04-24 19:18 | 42.36271 | 44.38683 | 19892 ft | 412 kts | 323° |
| 2026-04-24 19:18 | 42.38800 | 44.36850 | 20363 ft | 412 kts | 322° |
| 2026-04-24 19:18 | 42.41340 | 44.35049 | 20978 ft | 413 kts | 324° |
| 2026-04-24 19:18 | 42.43843 | 44.33157 | 21228 ft | 414 kts | 320° |
| 2026-04-24 19:19 | 42.46367 | 44.31203 | 21487 ft | 421 kts | 321° |
| 2026-04-24 19:19 | 42.48947 | 44.29298 | 21949 ft | 424 kts | 322° |
| 2026-04-24 19:19 | 42.51559 | 44.27422 | 22458 ft | 426 kts | 322° |
| 2026-04-24 19:19 | 42.54179 | 44.25500 | 22886 ft | 429 kts | 322° |
| 2026-04-24 19:20 | 42.56811 | 44.23550 | 23341 ft | 433 kts | 322° |
| 2026-04-24 19:20 | 42.59470 | 44.21579 | 23703 ft | 437 kts | 322° |
| 2026-04-24 19:20 | 42.62143 | 44.19604 | 24179 ft | 438 kts | 323° |
| 2026-04-24 19:20 | 42.64985 | 44.17949 | 24390 ft | 456 kts | 336° |
| 2026-04-24 19:21 | 42.68107 | 44.17014 | 24817 ft | 461 kts | 341° |
| 2026-04-24 19:21 | 42.71215 | 44.16207 | 25239 ft | 461 kts | 340° |
| 2026-04-24 19:21 | 42.74409 | 44.15352 | 25626 ft | 463 kts | 340° |
| 2026-04-24 19:21 | 42.77527 | 44.14479 | 26060 ft | 463 kts | 341° |
| 2026-04-24 19:22 | 42.79655 | 44.13909 | 26472 ft | 460 kts | 340° |
| 2026-04-24 19:22 | 42.83802 | 44.12676 | 26926 ft | 462 kts | 339° |
| 2026-04-24 19:22 | 42.86939 | 44.11688 | 27207 ft | 464 kts | 339° |
| 2026-04-24 19:22 | 42.90092 | 44.10693 | 27542 ft | 465 kts | 340° |
| 2026-04-24 19:23 | 42.93250 | 44.09708 | 27792 ft | 467 kts | 340° |
| 2026-04-24 19:23 | 42.96419 | 44.08728 | 28115 ft | 467 kts | 340° |
| 2026-04-24 19:23 | 42.99585 | 44.07758 | 28605 ft | 464 kts | 340° |
| 2026-04-24 19:23 | 43.02721 | 44.06799 | 29089 ft | 462 kts | 340° |
| 2026-04-24 19:24 | 43.05851 | 44.05840 | 29494 ft | 461 kts | 340° |
| 2026-04-24 19:24 | 43.08980 | 44.04878 | 29813 ft | 461 kts | 340° |
| 2026-04-24 19:24 | 43.12108 | 44.03915 | 30129 ft | 461 kts | 339° |
| 2026-04-24 19:24 | 43.15231 | 44.02954 | 30433 ft | 460 kts | 339° |
| 2026-04-24 19:25 | 43.18352 | 44.01988 | 30665 ft | 462 kts | 339° |
| 2026-04-24 19:25 | 43.21505 | 44.01003 | 30769 ft | 467 kts | 338° |
| 2026-04-24 19:25 | 43.24686 | 44.00007 | 30882 ft | 471 kts | 338° |
| 2026-04-24 19:25 | 43.27778 | 43.99045 | 31170 ft | 470 kts | 338° |
| 2026-04-24 19:26 | 43.30957 | 43.98059 | 31528 ft | 467 kts | 338° |
| 2026-04-24 19:26 | 43.34119 | 43.97075 | 31832 ft | 466 kts | 338° |
| 2026-04-24 19:26 | 43.37282 | 43.96086 | 32041 ft | 467 kts | 338° |
| 2026-04-24 19:26 | 43.40453 | 43.95092 | 32247 ft | 468 kts | 338° |
| 2026-04-24 19:27 | 43.43624 | 43.94100 | 32530 ft | 467 kts | 338° |
| 2026-04-24 19:27 | 43.46790 | 43.93112 | 32854 ft | 466 kts | 338° |
| 2026-04-24 19:27 | 43.49945 | 43.92127 | 33143 ft | 465 kts | 338° |
| 2026-04-24 19:27 | 43.53100 | 43.91141 | 33365 ft | 465 kts | 337° |
| 2026-04-24 19:28 | 43.56254 | 43.90152 | 33593 ft | 465 kts | 337° |
| 2026-04-24 19:28 | 43.59408 | 43.89161 | 33824 ft | 465 kts | 337° |
| 2026-04-24 19:28 | 43.62558 | 43.88171 | 33949 ft | 466 kts | 337° |
| 2026-04-24 19:28 | 43.65736 | 43.87169 | 33939 ft | 468 kts | 337° |
| 2026-04-24 19:29 | 43.75198 | 43.84193 | 33942 ft | 462 kts | 337° |
| 2026-04-24 19:30 | 43.81444 | 43.82218 | 33953 ft | 459 kts | 337° |
| 2026-04-24 19:30 | 43.87664 | 43.80251 | 33983 ft | 457 kts | 338° |
| 2026-04-24 19:31 | 43.93865 | 43.78295 | 33961 ft | 457 kts | 338° |
| 2026-04-24 19:31 | 44.00058 | 43.76338 | 33947 ft | 456 kts | 338° |
| 2026-04-24 19:32 | 44.06245 | 43.74377 | 33958 ft | 456 kts | 337° |
| 2026-04-24 19:32 | 44.12448 | 43.72406 | 33971 ft | 458 kts | 338° |
| 2026-04-24 19:33 | 44.18677 | 43.70423 | 33969 ft | 460 kts | 338° |
| 2026-04-24 19:33 | 44.24939 | 43.68430 | 33961 ft | 462 kts | 338° |
| 2026-04-24 19:34 | 44.30157 | 43.66766 | 33960 ft | 464 kts | 338° |
| 2026-04-24 19:34 | 44.37482 | 43.64425 | 33964 ft | 466 kts | 338° |
| 2026-04-24 19:35 | 44.43806 | 43.62399 | 33961 ft | 467 kts | 338° |
| 2026-04-24 19:35 | 44.49111 | 43.60697 | 33958 ft | 467 kts | 338° |
| 2026-04-24 19:36 | 44.55440 | 43.58670 | 33966 ft | 466 kts | 338° |
| 2026-04-24 19:36 | 44.61765 | 43.56639 | 33967 ft | 466 kts | 338° |
| 2026-04-24 19:37 | 44.68083 | 43.54604 | 33975 ft | 465 kts | 338° |
| 2026-04-24 19:37 | 44.74388 | 43.52569 | 33961 ft | 464 kts | 338° |
| 2026-04-24 19:38 | 44.80686 | 43.50538 | 33991 ft | 464 kts | 338° |
| 2026-04-24 19:38 | 44.86934 | 43.48521 | 33965 ft | 463 kts | 338° |
| 2026-04-24 19:39 | 44.93215 | 43.46488 | 33962 ft | 463 kts | 338° |
| 2026-04-24 19:39 | 44.99488 | 43.44452 | 33951 ft | 462 kts | 338° |
| 2026-04-24 19:40 | 45.05764 | 43.42459 | 34037 ft | 468 kts | 342° |
| 2026-04-24 19:40 | 45.09048 | 43.42047 | 34171 ft | 480 kts | 352° |
| 2026-04-24 19:40 | 45.12406 | 43.42382 | 34394 ft | 489 kts | 2° |
| 2026-04-24 19:40 | 45.15755 | 43.43284 | 34633 ft | 490 kts | 5° |
| 2026-04-24 19:41 | 45.19096 | 43.44279 | 34813 ft | 491 kts | 5° |
| 2026-04-24 19:41 | 45.22432 | 43.45281 | 34927 ft | 491 kts | 5° |
| 2026-04-24 19:41 | 45.25782 | 43.46260 | 34950 ft | 493 kts | 5° |
| 2026-04-24 19:42 | 45.32517 | 43.48152 | 34952 ft | 492 kts | 4° |
| 2026-04-24 19:42 | 45.39266 | 43.50013 | 34951 ft | 490 kts | 4° |
| 2026-04-24 19:43 | 45.45955 | 43.51863 | 34942 ft | 489 kts | 4° |
| 2026-04-24 19:43 | 45.52574 | 43.53706 | 34941 ft | 488 kts | 4° |
| 2026-04-24 19:44 | 45.59230 | 43.55570 | 34942 ft | 487 kts | 4° |
| 2026-04-24 19:44 | 45.65879 | 43.57435 | 34936 ft | 487 kts | 4° |
| 2026-04-24 19:45 | 45.72536 | 43.59307 | 34949 ft | 488 kts | 5° |
| 2026-04-24 19:45 | 45.79214 | 43.61189 | 34938 ft | 489 kts | 5° |
| 2026-04-24 19:46 | 45.85903 | 43.63079 | 34929 ft | 491 kts | 5° |
| 2026-04-24 19:46 | 45.92609 | 43.64979 | 34923 ft | 492 kts | 5° |
| 2026-04-24 19:47 | 45.99327 | 43.66887 | 34927 ft | 493 kts | 5° |
| 2026-04-24 19:47 | 46.06042 | 43.68969 | 34927 ft | 496 kts | 7° |
| 2026-04-24 19:48 | 46.12757 | 43.71268 | 34917 ft | 496 kts | 7° |
| 2026-04-24 19:48 | 46.22830 | 43.74693 | 34920 ft | 495 kts | 7° |
| 2026-04-24 19:49 | 46.36253 | 43.79203 | 34909 ft | 495 kts | 7° |
| 2026-04-24 19:50 | 46.49651 | 43.83731 | 34917 ft | 494 kts | 7° |
| 2026-04-24 19:51 | 46.59691 | 43.87142 | 34901 ft | 494 kts | 7° |
| 2026-04-24 19:52 | 46.69728 | 43.90568 | 34905 ft | 494 kts | 7° |
| 2026-04-24 19:52 | 46.76421 | 43.92859 | 34911 ft | 494 kts | 7° |
| 2026-04-24 19:53 | 46.83122 | 43.95159 | 34904 ft | 495 kts | 7° |
| 2026-04-24 19:54 | 46.93176 | 43.98622 | 34898 ft | 495 kts | 7° |
| 2026-04-24 19:54 | 46.99837 | 44.00923 | 34895 ft | 495 kts | 8° |
| 2026-04-24 19:55 | 47.05448 | 44.02877 | 34890 ft | 496 kts | 8° |
| 2026-04-24 19:55 | 47.13243 | 44.05609 | 34897 ft | 496 kts | 8° |
| 2026-04-24 19:56 | 47.19953 | 44.07968 | 34883 ft | 496 kts | 8° |
| 2026-04-24 19:56 | 47.26656 | 44.10330 | 34876 ft | 495 kts | 8° |
| 2026-04-24 19:57 | 47.33349 | 44.12692 | 34875 ft | 494 kts | 8° |
| 2026-04-24 19:57 | 47.40038 | 44.15060 | 34885 ft | 494 kts | 8° |
| 2026-04-24 19:58 | 47.46722 | 44.17431 | 34857 ft | 494 kts | 8° |
| 2026-04-24 19:58 | 47.53410 | 44.19811 | 34865 ft | 494 kts | 8° |
| 2026-04-24 19:59 | 47.60082 | 44.22191 | 34842 ft | 493 kts | 8° |
| 2026-04-24 19:59 | 47.66755 | 44.24578 | 34848 ft | 493 kts | 8° |
| 2026-04-24 20:00 | 47.73423 | 44.26969 | 34841 ft | 493 kts | 8° |
| 2026-04-24 20:00 | 47.80086 | 44.29365 | 34867 ft | 493 kts | 8° |
| 2026-04-24 20:01 | 47.86755 | 44.31769 | 34833 ft | 493 kts | 8° |
| 2026-04-24 20:01 | 47.93423 | 44.34199 | 34826 ft | 494 kts | 10° |
| 2026-04-24 20:02 | 47.98902 | 44.36656 | 34812 ft | 496 kts | 13° |
| 2026-04-24 20:02 | 48.06548 | 44.40471 | 34799 ft | 496 kts | 13° |
| 2026-04-24 20:03 | 48.13047 | 44.43685 | 34807 ft | 495 kts | 13° |
| 2026-04-24 20:03 | 48.19597 | 44.46868 | 34819 ft | 495 kts | 13° |
| 2026-04-24 20:04 | 48.26154 | 44.50047 | 34785 ft | 495 kts | 13° |
| 2026-04-24 20:04 | 48.32703 | 44.53234 | 34775 ft | 494 kts | 13° |
| 2026-04-24 20:05 | 48.39243 | 44.56428 | 34779 ft | 494 kts | 13° |
| 2026-04-24 20:05 | 48.45773 | 44.59627 | 34768 ft | 493 kts | 13° |
| 2026-04-24 20:06 | 48.52300 | 44.62832 | 34753 ft | 493 kts | 13° |
| 2026-04-24 20:06 | 48.58817 | 44.66041 | 34784 ft | 493 kts | 13° |
| 2026-04-24 20:07 | 48.64234 | 44.68714 | 34765 ft | 493 kts | 14° |
| 2026-04-24 20:07 | 48.71848 | 44.72497 | 34754 ft | 492 kts | 14° |
| 2026-04-24 20:08 | 48.78356 | 44.75746 | 34749 ft | 492 kts | 14° |
| 2026-04-24 20:08 | 48.84855 | 44.78987 | 34739 ft | 491 kts | 13° |
| 2026-04-24 20:09 | 48.91409 | 44.81830 | 34731 ft | 489 kts | 10° |
| 2026-04-24 20:09 | 48.97994 | 44.84485 | 34729 ft | 490 kts | 10° |
| 2026-04-24 20:10 | 49.04571 | 44.87194 | 34718 ft | 491 kts | 11° |
| 2026-04-24 20:10 | 49.11150 | 44.89967 | 34717 ft | 491 kts | 11° |
| 2026-04-24 20:11 | 49.17683 | 44.92743 | 34707 ft | 491 kts | 11° |
| 2026-04-24 20:11 | 49.24258 | 44.95544 | 34699 ft | 490 kts | 11° |
| 2026-04-24 20:12 | 49.30828 | 44.98347 | 34688 ft | 490 kts | 11° |
| 2026-04-24 20:12 | 49.37296 | 45.01113 | 34688 ft | 490 kts | 11° |
| 2026-04-24 20:13 | 49.43858 | 45.03927 | 34682 ft | 489 kts | 11° |
| 2026-04-24 20:13 | 49.50403 | 45.06742 | 34672 ft | 488 kts | 11° |
| 2026-04-24 20:14 | 49.56934 | 45.09559 | 34675 ft | 487 kts | 11° |
| 2026-04-24 20:14 | 49.63445 | 45.12375 | 34658 ft | 486 kts | 12° |
| 2026-04-24 20:15 | 49.69943 | 45.15195 | 34664 ft | 485 kts | 12° |
| 2026-04-24 20:15 | 49.76428 | 45.18031 | 34674 ft | 484 kts | 12° |
| 2026-04-24 20:16 | 49.82911 | 45.20875 | 34656 ft | 485 kts | 12° |
| 2026-04-24 20:16 | 49.89398 | 45.23728 | 34657 ft | 484 kts | 12° |
| 2026-04-24 20:17 | 49.95877 | 45.26585 | 34647 ft | 484 kts | 12° |
| 2026-04-24 20:17 | 50.05613 | 45.30665 | 34643 ft | 482 kts | 9° |
| 2026-04-24 20:18 | 50.12165 | 45.32840 | 34632 ft | 481 kts | 8° |
| 2026-04-24 20:18 | 50.18684 | 45.34962 | 34627 ft | 482 kts | 8° |
| 2026-04-24 20:19 | 50.25235 | 45.37163 | 34625 ft | 483 kts | 8° |
| 2026-04-24 20:19 | 50.31814 | 45.39416 | 34618 ft | 484 kts | 8° |
| 2026-04-24 20:20 | 50.37329 | 45.41313 | 34616 ft | 485 kts | 8° |
| 2026-04-24 20:20 | 50.44997 | 45.43954 | 34608 ft | 486 kts | 9° |
| 2026-04-24 20:21 | 50.51605 | 45.46236 | 34597 ft | 487 kts | 9° |
| 2026-04-24 20:21 | 50.58219 | 45.48527 | 34605 ft | 487 kts | 9° |
| 2026-04-24 20:22 | 50.63723 | 45.50438 | 34589 ft | 487 kts | 9° |
| 2026-04-24 20:22 | 50.70339 | 45.52742 | 34580 ft | 486 kts | 9° |
| 2026-04-24 20:23 | 50.76947 | 45.55049 | 34575 ft | 486 kts | 9° |
| 2026-04-24 20:23 | 50.83541 | 45.57382 | 34570 ft | 485 kts | 9° |
| 2026-04-24 20:24 | 50.90118 | 45.59750 | 34565 ft | 485 kts | 9° |
| 2026-04-24 20:24 | 50.96695 | 45.62120 | 34577 ft | 484 kts | 10° |
| 2026-04-24 20:25 | 51.03240 | 45.64607 | 34555 ft | 485 kts | 15° |
| 2026-04-24 20:25 | 51.09437 | 45.68926 | 34552 ft | 487 kts | 24° |
| 2026-04-24 20:26 | 51.15533 | 45.73648 | 34546 ft | 487 kts | 24° |
| 2026-04-24 20:26 | 51.21644 | 45.78315 | 34542 ft | 487 kts | 23° |
| 2026-04-24 20:27 | 51.27770 | 45.82940 | 34539 ft | 487 kts | 23° |
| 2026-04-24 20:27 | 51.33908 | 45.87575 | 34526 ft | 488 kts | 23° |
| 2026-04-24 20:28 | 51.40048 | 45.92229 | 34527 ft | 489 kts | 23° |
| 2026-04-24 20:28 | 51.46197 | 45.96909 | 34517 ft | 489 kts | 24° |
| 2026-04-24 20:29 | 51.52204 | 46.01492 | 34509 ft | 489 kts | 24° |
| 2026-04-24 20:29 | 51.58115 | 46.06886 | 34487 ft | 491 kts | 38° |
| 2026-04-24 20:30 | 51.63254 | 46.14090 | 34499 ft | 490 kts | 41° |
| 2026-04-24 20:30 | 51.68360 | 46.21372 | 34496 ft | 490 kts | 40° |
| 2026-04-24 20:31 | 51.73503 | 46.28576 | 34498 ft | 489 kts | 40° |
| 2026-04-24 20:31 | 51.78649 | 46.35766 | 34499 ft | 489 kts | 40° |
| 2026-04-24 20:32 | 51.83465 | 46.43512 | 34506 ft | 489 kts | 52° |
| 2026-04-24 20:32 | 51.87564 | 46.52291 | 34503 ft | 489 kts | 53° |
| 2026-04-24 20:33 | 51.91707 | 46.61055 | 34493 ft | 490 kts | 52° |
| 2026-04-24 20:33 | 51.95889 | 46.69773 | 34493 ft | 490 kts | 52° |
| 2026-04-24 20:34 | 52.00059 | 46.78513 | 34494 ft | 491 kts | 52° |
| 2026-04-24 20:34 | 52.02155 | 46.82923 | 34130 ft | 497 kts | 52° |
| 2026-04-24 20:34 | 52.04271 | 46.87380 | 33594 ft | 498 kts | 52° |
| 2026-04-24 20:35 | 52.06388 | 46.91839 | 32887 ft | 499 kts | 52° |
| 2026-04-24 20:35 | 52.08501 | 46.96309 | 32203 ft | 499 kts | 52° |
| 2026-04-24 20:35 | 52.10539 | 47.00632 | 31618 ft | 498 kts | 52° |
| 2026-04-24 20:35 | 52.12635 | 47.05081 | 31166 ft | 493 kts | 52° |
| 2026-04-24 20:36 | 52.14710 | 47.09491 | 30697 ft | 489 kts | 52° |
| 2026-04-24 20:36 | 52.16766 | 47.13866 | 30242 ft | 485 kts | 52° |
| 2026-04-24 20:36 | 52.18782 | 47.18165 | 29750 ft | 483 kts | 52° |
| 2026-04-24 20:36 | 52.20808 | 47.22500 | 29225 ft | 479 kts | 52° |
| 2026-04-24 20:37 | 52.22816 | 47.26805 | 28697 ft | 474 kts | 52° |
| 2026-04-24 20:37 | 52.24800 | 47.31064 | 28238 ft | 469 kts | 52° |
| 2026-04-24 20:37 | 52.26761 | 47.35283 | 27770 ft | 464 kts | 52° |
| 2026-04-24 20:37 | 52.28698 | 47.39453 | 27308 ft | 459 kts | 52° |
| 2026-04-24 20:38 | 52.30613 | 47.43583 | 26858 ft | 454 kts | 52° |
| 2026-04-24 20:38 | 52.32507 | 47.47674 | 26401 ft | 449 kts | 52° |
| 2026-04-24 20:38 | 52.34378 | 47.51722 | 26031 ft | 443 kts | 52° |
| 2026-04-24 20:38 | 52.36223 | 47.55717 | 25615 ft | 438 kts | 52° |
| 2026-04-24 20:39 | 52.38053 | 47.59687 | 25187 ft | 434 kts | 52° |
| 2026-04-24 20:39 | 52.39861 | 47.63615 | 24783 ft | 430 kts | 52° |
| 2026-04-24 20:39 | 52.41648 | 47.67504 | 24356 ft | 426 kts | 52° |
| 2026-04-24 20:39 | 52.43425 | 47.71378 | 23921 ft | 424 kts | 52° |
| 2026-04-24 20:40 | 52.45188 | 47.75226 | 23499 ft | 420 kts | 52° |
| 2026-04-24 20:40 | 52.46934 | 47.79044 | 23074 ft | 418 kts | 52° |
| 2026-04-24 20:40 | 52.48672 | 47.82849 | 22561 ft | 415 kts | 52° |
| 2026-04-24 20:40 | 52.50393 | 47.86621 | 22107 ft | 410 kts | 52° |
| 2026-04-24 20:41 | 52.52091 | 47.90350 | 21696 ft | 406 kts | 52° |
| 2026-04-24 20:41 | 52.53768 | 47.94040 | 21280 ft | 401 kts | 52° |
| 2026-04-24 20:41 | 52.55430 | 47.97698 | 20859 ft | 398 kts | 52° |
| 2026-04-24 20:41 | 52.57021 | 48.01207 | 20452 ft | 394 kts | 52° |
| 2026-04-24 20:42 | 52.58653 | 48.04810 | 20057 ft | 391 kts | 52° |
| 2026-04-24 20:42 | 52.60270 | 48.08385 | 19649 ft | 388 kts | 52° |
| 2026-04-24 20:42 | 52.61870 | 48.11928 | 19318 ft | 383 kts | 52° |
| 2026-04-24 20:42 | 52.63451 | 48.15433 | 18931 ft | 380 kts | 52° |
| 2026-04-24 20:43 | 52.64999 | 48.18871 | 18549 ft | 378 kts | 52° |
| 2026-04-24 20:43 | 52.66557 | 48.22335 | 18160 ft | 375 kts | 52° |
| 2026-04-24 20:43 | 52.68101 | 48.25773 | 17773 ft | 373 kts | 52° |
| 2026-04-24 20:43 | 52.69642 | 48.29209 | 17334 ft | 371 kts | 52° |
| 2026-04-24 20:44 | 52.71169 | 48.32616 | 16938 ft | 368 kts | 53° |
| 2026-04-24 20:44 | 52.72682 | 48.35998 | 16555 ft | 365 kts | 53° |
| 2026-04-24 20:44 | 52.74182 | 48.39356 | 16163 ft | 362 kts | 53° |
| 2026-04-24 20:44 | 52.75669 | 48.42689 | 15778 ft | 360 kts | 53° |
| 2026-04-24 20:45 | 52.77148 | 48.46007 | 15399 ft | 358 kts | 53° |
| 2026-04-24 20:45 | 52.78618 | 48.49312 | 15023 ft | 356 kts | 53° |
| 2026-04-24 20:45 | 52.80080 | 48.52601 | 14651 ft | 354 kts | 53° |
| 2026-04-24 20:45 | 52.81533 | 48.55876 | 14276 ft | 353 kts | 53° |
| 2026-04-24 20:46 | 52.82981 | 48.59142 | 13904 ft | 352 kts | 53° |
| 2026-04-24 20:46 | 52.84424 | 48.62402 | 13548 ft | 350 kts | 53° |
| 2026-04-24 20:46 | 52.85861 | 48.65652 | 13158 ft | 350 kts | 54° |
| 2026-04-24 20:46 | 52.87293 | 48.68897 | 12752 ft | 349 kts | 54° |
| 2026-04-24 20:47 | 52.88721 | 48.72134 | 12360 ft | 348 kts | 54° |
| 2026-04-24 20:47 | 52.90141 | 48.75358 | 11987 ft | 346 kts | 54° |
| 2026-04-24 20:47 | 52.91558 | 48.78578 | 11616 ft | 345 kts | 54° |
| 2026-04-24 20:47 | 52.92966 | 48.81783 | 11241 ft | 343 kts | 54° |
| 2026-04-24 20:48 | 52.94368 | 48.84980 | 10875 ft | 342 kts | 54° |
| 2026-04-24 20:48 | 52.95763 | 48.88166 | 10512 ft | 341 kts | 54° |
| 2026-04-24 20:48 | 52.97151 | 48.91342 | 10230 ft | 337 kts | 55° |
| 2026-04-24 20:48 | 52.98509 | 48.94453 | 10083 ft | 329 kts | 55° |
| 2026-04-24 20:49 | 52.99837 | 48.97497 | 9935 ft | 322 kts | 55° |
| 2026-04-24 20:49 | 53.01089 | 49.00374 | 9802 ft | 314 kts | 55° |
| 2026-04-24 20:49 | 53.02355 | 49.03284 | 9667 ft | 307 kts | 55° |
| 2026-04-24 20:49 | 53.03590 | 49.06126 | 9539 ft | 300 kts | 55° |
| 2026-04-24 20:50 | 53.04803 | 49.08919 | 9288 ft | 298 kts | 56° |
| 2026-04-24 20:50 | 53.06009 | 49.11701 | 9021 ft | 296 kts | 56° |
| 2026-04-24 20:50 | 53.07207 | 49.14467 | 8759 ft | 294 kts | 56° |
| 2026-04-24 20:50 | 53.08409 | 49.17203 | 8494 ft | 292 kts | 51° |
| 2026-04-24 20:51 | 53.09902 | 49.19417 | 8414 ft | 286 kts | 34° |
| 2026-04-24 20:51 | 53.11538 | 49.21337 | 8334 ft | 292 kts | 34° |
| 2026-04-24 20:51 | 53.13214 | 49.23312 | 8227 ft | 298 kts | 34° |
| 2026-04-24 20:51 | 53.14904 | 49.25322 | 8113 ft | 299 kts | 35° |
| 2026-04-24 20:52 | 53.16588 | 49.27341 | 8001 ft | 297 kts | 35° |
| 2026-04-24 20:52 | 53.18260 | 49.29357 | 7892 ft | 296 kts | 35° |
| 2026-04-24 20:52 | 53.19922 | 49.31371 | 7785 ft | 295 kts | 36° |
| 2026-04-24 20:52 | 53.21574 | 49.33379 | 7682 ft | 293 kts | 36° |
| 2026-04-24 20:53 | 53.23220 | 49.35383 | 7591 ft | 292 kts | 36° |
| 2026-04-24 20:53 | 53.24861 | 49.37387 | 7474 ft | 291 kts | 36° |
| 2026-04-24 20:53 | 53.26493 | 49.39382 | 7408 ft | 291 kts | 36° |
| 2026-04-24 20:53 | 53.28122 | 49.41374 | 7301 ft | 290 kts | 36° |
| 2026-04-24 20:54 | 53.29752 | 49.43369 | 7190 ft | 290 kts | 36° |
| 2026-04-24 20:54 | 53.31377 | 49.45361 | 7092 ft | 290 kts | 37° |
| 2026-04-24 20:54 | 53.33000 | 49.47354 | 6991 ft | 289 kts | 37° |
| 2026-04-24 20:54 | 53.34625 | 49.49350 | 6895 ft | 289 kts | 37° |
| 2026-04-24 20:55 | 53.36226 | 49.51318 | 6773 ft | 289 kts | 37° |
| 2026-04-24 20:55 | 53.37866 | 49.53337 | 6692 ft | 289 kts | 37° |
| 2026-04-24 20:55 | 53.39466 | 49.55308 | 6580 ft | 289 kts | 37° |
| 2026-04-24 20:55 | 53.41086 | 49.57306 | 6471 ft | 290 kts | 37° |
| 2026-04-24 20:56 | 53.42720 | 49.59322 | 6287 ft | 294 kts | 37° |
| 2026-04-24 20:56 | 53.44372 | 49.61362 | 6101 ft | 294 kts | 37° |
| 2026-04-24 20:56 | 53.46012 | 49.63391 | 5914 ft | 291 kts | 37° |
| 2026-04-24 20:56 | 53.47635 | 49.65400 | 5720 ft | 288 kts | 37° |
| 2026-04-24 20:57 | 53.49236 | 49.67384 | 5519 ft | 284 kts | 37° |
| 2026-04-24 20:57 | 53.50822 | 49.69352 | 5353 ft | 283 kts | 37° |
| 2026-04-24 20:57 | 53.52399 | 49.71308 | 5180 ft | 281 kts | 37° |
| 2026-04-24 20:57 | 53.53971 | 49.73262 | 5015 ft | 281 kts | 37° |
| 2026-04-24 20:58 | 53.55538 | 49.75211 | 4827 ft | 280 kts | 37° |
| 2026-04-24 20:58 | 53.57104 | 49.77160 | 4662 ft | 280 kts | 37° |
| 2026-04-24 20:58 | 53.58675 | 49.79118 | 4498 ft | 283 kts | 37° |
| 2026-04-24 20:58 | 53.60262 | 49.81098 | 4307 ft | 285 kts | 37° |
| 2026-04-24 20:59 | 53.61857 | 49.83089 | 4064 ft | 284 kts | 37° |
| 2026-04-24 20:59 | 53.63437 | 49.85063 | 3991 ft | 281 kts | 37° |
| 2026-04-24 20:59 | 53.64999 | 49.87016 | 3981 ft | 278 kts | 37° |
| 2026-04-24 20:59 | 53.66528 | 49.89006 | 3978 ft | 279 kts | 45° |
| 2026-04-24 21:00 | 53.67539 | 49.91728 | 3940 ft | 275 kts | 79° |
| 2026-04-24 21:00 | 53.67749 | 49.94892 | 3745 ft | 271 kts | 97° |
| 2026-04-24 21:00 | 53.67717 | 49.98059 | 3519 ft | 269 kts | 97° |
| 2026-04-24 21:00 | 53.67694 | 50.01075 | 3321 ft | 264 kts | 97° |
| 2026-04-24 21:01 | 53.67666 | 50.04111 | 3105 ft | 252 kts | 102° |
| 2026-04-24 21:01 | 53.67093 | 50.06646 | 2950 ft | 216 kts | 142° |
| 2026-04-24 21:01 | 53.65953 | 50.07966 | 2816 ft | 194 kts | 161° |
| 2026-04-24 21:01 | 53.64760 | 50.08983 | 2616 ft | 184 kts | 161° |
| 2026-04-24 21:02 | 53.63644 | 50.09809 | 2422 ft | 167 kts | 166° |
| 2026-04-24 21:02 | 53.62602 | 50.10461 | 2268 ft | 158 kts | 167° |
| 2026-04-24 21:02 | 53.61577 | 50.11074 | 2147 ft | 154 kts | 167° |
| 2026-04-24 21:02 | 53.60581 | 50.11667 | 2040 ft | 144 kts | 167° |
| 2026-04-24 21:03 | 53.59680 | 50.12205 | 1932 ft | 134 kts | 167° |
| 2026-04-24 21:03 | 53.58803 | 50.12725 | 1864 ft | 129 kts | 166° |
| 2026-04-24 21:03 | 53.57950 | 50.13230 | 1690 ft | 129 kts | 166° |
| 2026-04-24 21:03 | 53.57090 | 50.13737 | 1521 ft | 133 kts | 165° |
| 2026-04-24 21:04 | 53.56218 | 50.14262 | 1327 ft | 136 kts | 166° |
| 2026-04-24 21:04 | 53.55318 | 50.14787 | 1179 ft | 132 kts | 164° |
| 2026-04-24 21:04 | 53.54461 | 50.15290 | 1032 ft | 129 kts | 163° |
| 2026-04-24 21:04 | 53.53607 | 50.15819 | 827 ft | 132 kts | 161° |
| 2026-04-24 21:05 | 53.52728 | 50.16335 | 659 ft | 134 kts | 164° |
| 2026-04-24 21:05 | 53.51850 | 50.16856 | 492 ft | 134 kts | 162° |
| 2026-04-24 21:05 | 53.51019 | 50.17343 | 435 ft | 115 kts | 161° |
| 2026-04-24 21:05 | 53.50379 | 50.17726 | 439 ft | 80 kts | 160° |
| 2026-04-24 21:06 | 53.49969 | 50.17973 | 444 ft | 49 kts | 160° |
| 2026-04-24 21:06 | 53.49672 | 50.18150 | 443 ft | 42 kts | 161° |
| 2026-04-24 21:06 | 53.49431 | 50.18294 | 438 ft | 26 kts | 163° |
| 2026-04-24 21:06 | 53.49305 | 50.18248 | 442 ft | 17 kts | 235° |
| 2026-04-24 21:07 | 53.49281 | 50.18147 | 441 ft | 0 kts | 256° |
| 2026-04-24 21:08 | 53.49281 | 50.18146 | 441 ft | 0 kts | 256° |
| 2026-04-24 21:08 | 53.49281 | 50.18144 | 442 ft | 0 kts | 256° |
| 2026-04-24 21:08 | 53.49280 | 50.18140 | 442 ft | 1 kts | 256° |
| 2026-04-24 21:09 | 53.49279 | 50.18134 | 445 ft | 1 kts | 256° |
| 2026-04-24 21:09 | 53.49278 | 50.18049 | 438 ft | 16 kts | 277° |
| 2026-04-24 21:09 | 53.49351 | 50.17922 | 441 ft | 15 kts | 339° |
| 2026-04-24 21:09 | 53.49446 | 50.17863 | 436 ft | 14 kts | 340° |
| 2026-04-24 21:10 | 53.49537 | 50.17808 | 434 ft | 15 kts | 341° |
| 2026-04-24 21:10 | 53.49647 | 50.17743 | 436 ft | 19 kts | 341° |
| 2026-04-24 21:10 | 53.49774 | 50.17666 | 446 ft | 20 kts | 340° |
| 2026-04-24 21:10 | 53.49899 | 50.17590 | 440 ft | 19 kts | 340° |
| 2026-04-24 21:11 | 53.50035 | 50.17509 | 442 ft | 22 kts | 340° |
| 2026-04-24 21:11 | 53.50184 | 50.17420 | 434 ft | 23 kts | 340° |
| 2026-04-24 21:11 | 53.50332 | 50.17331 | 437 ft | 22 kts | 340° |
| 2026-04-24 21:11 | 53.50475 | 50.17246 | 441 ft | 21 kts | 340° |
| 2026-04-24 21:12 | 53.50606 | 50.17168 | 440 ft | 19 kts | 340° |
| 2026-04-24 21:12 | 53.50724 | 50.17098 | 441 ft | 17 kts | 340° |
| 2026-04-24 21:12 | 53.50819 | 50.17041 | 445 ft | 8 kts | 340° |
| 2026-04-24 21:12 | 53.50862 | 50.16999 | 445 ft | 6 kts | 303° |
| 2026-04-24 21:13 | 53.50885 | 50.16933 | 441 ft | 8 kts | 297° |
| 2026-04-24 21:13 | 53.50918 | 50.16833 | 433 ft | 12 kts | 300° |
| 2026-04-24 21:13 | 53.50963 | 50.16709 | 446 ft | 12 kts | 301° |
| 2026-04-24 21:13 | 53.51005 | 50.16593 | 434 ft | 11 kts | 301° |
| 2026-04-24 21:14 | 53.51042 | 50.16490 | 446 ft | 10 kts | 301° |
| 2026-04-24 21:14 | 53.51076 | 50.16397 | 437 ft | 9 kts | 301° |
| 2026-04-24 21:14 | 53.51106 | 50.16313 | 441 ft | 8 kts | 302° |
| 2026-04-24 21:14 | 53.51136 | 50.16233 | 439 ft | 7 kts | 302° |
| 2026-04-24 21:15 | 53.51153 | 50.16158 | 440 ft | 7 kts | 268° |
| 2026-04-24 21:15 | 53.51133 | 50.16081 | 438 ft | 7 kts | 241° |
| 2026-04-24 21:15 | 53.51117 | 50.16002 | 437 ft | 7 kts | 278° |
| 2026-04-24 21:15 | 53.51153 | 50.15953 | 436 ft | 6 kts | 332° |
| 2026-04-24 21:16 | 53.51173 | 50.15934 | 446 ft | 0 kts | 333° |